createdAt,value
2017-06-04T00:00:05.873Z,18.08
2017-06-04T00:01:14.765Z,17.93
2017-06-04T00:02:23.660Z,17.93
2017-06-04T00:03:32.876Z,17.92
2017-06-04T00:04:42.097Z,17.9
2017-06-04T00:05:51.495Z,17.74
2017-06-04T00:07:00.387Z,17.75
2017-06-04T00:08:09.925Z,17.87
2017-06-04T00:09:19.471Z,17.82
2017-06-04T00:10:28.364Z,17.96
2017-06-04T00:11:37.560Z,17.78
2017-06-04T00:12:46.776Z,17.75
2017-06-04T00:13:55.997Z,17.82
2017-06-04T00:15:05.539Z,17.75
2017-06-04T00:16:14.758Z,17.75
2017-06-04T00:17:23.952Z,17.72
2017-06-04T00:18:32.840Z,17.68
2017-06-04T00:19:42.059Z,17.68
2017-06-04T00:20:51.280Z,17.7
2017-06-04T00:22:00.499Z,17.68
2017-06-04T00:23:09.389Z,17.52
2017-06-04T00:24:18.282Z,17.62
2017-06-04T00:25:27.178Z,17.49
2017-06-04T00:26:36.086Z,17.4
2017-06-04T00:27:45.303Z,17.41
2017-06-04T00:28:54.668Z,17.36
2017-06-04T00:30:03.887Z,17.33
2017-06-04T00:31:12.779Z,17.3
2017-06-04T00:32:21.671Z,17.28
2017-06-04T00:33:30.885Z,17.19
2017-06-04T00:34:40.150Z,17.23
2017-06-04T00:35:49.042Z,17.16
2017-06-04T00:36:57.933Z,17.21
2017-06-04T00:38:06.826Z,17.28
2017-06-04T00:39:16.044Z,17.3
2017-06-04T00:40:25.885Z,17.31
2017-06-04T00:41:34.780Z,17.33
2017-06-04T00:42:44.329Z,17.4
2017-06-04T00:43:53.548Z,17.36
2017-06-04T00:45:02.445Z,17.31
2017-06-04T00:46:11.384Z,17.3
2017-06-04T00:47:20.278Z,17.23
2017-06-04T00:48:29.495Z,17.3
2017-06-04T00:49:38.391Z,17.3
2017-06-04T00:50:47.290Z,17.31
2017-06-04T00:51:56.664Z,17.3
2017-06-04T00:53:05.590Z,17.31
2017-06-04T00:54:14.803Z,17.4
2017-06-04T00:55:23.701Z,17.16
2017-06-04T00:56:32.594Z,17.16
2017-06-04T00:57:42.288Z,17.14
2017-06-04T00:58:51.178Z,17.23
2017-06-04T01:00:00.395Z,17.14
2017-06-04T01:01:09.616Z,17.01
2017-06-04T01:02:18.507Z,17.07
2017-06-04T01:03:28.026Z,17.18
2017-06-04T01:04:36.917Z,17.04
2017-06-04T01:05:45.809Z,16.94
2017-06-04T01:06:55.351Z,16.89
2017-06-04T01:08:04.565Z,17
2017-06-04T01:09:13.606Z,16.94
2017-06-04T01:10:22.501Z,16.93
2017-06-04T01:11:31.395Z,16.88
2017-06-04T01:12:40.608Z,16.96
2017-06-04T01:13:49.498Z,16.85
2017-06-04T01:14:58.543Z,16.97
2017-06-04T01:16:07.438Z,16.86
2017-06-04T01:17:16.327Z,16.94
2017-06-04T01:18:25.219Z,16.93
2017-06-04T01:19:34.112Z,16.75
2017-06-04T01:20:43.154Z,16.76
2017-06-04T01:21:52.046Z,16.71
2017-06-04T01:23:01.261Z,16.66
2017-06-04T01:24:10.153Z,16.73
2017-06-04T01:25:19.378Z,16.7
2017-06-04T01:26:28.747Z,16.39
2017-06-04T01:27:37.642Z,16.5
2017-06-04T01:28:46.859Z,16.23
2017-06-04T01:29:55.747Z,16.2
2017-06-04T01:31:04.636Z,16.15
2017-06-04T01:32:13.858Z,16.14
2017-06-04T01:33:22.755Z,16.25
2017-06-04T01:34:32.335Z,16.25
2017-06-04T01:35:41.228Z,16.24
2017-06-04T01:36:50.119Z,16.23
2017-06-04T01:37:59.257Z,16.09
2017-06-04T01:39:08.149Z,16.17
2017-06-04T01:40:17.043Z,16.08
2017-06-04T01:41:25.937Z,16.01
2017-06-04T01:42:34.828Z,16.11
2017-06-04T01:43:43.868Z,16.15
2017-06-04T01:44:53.092Z,16.07
2017-06-04T01:46:02.308Z,16.02
2017-06-04T01:47:11.530Z,16.01
2017-06-04T01:48:20.424Z,16.04
2017-06-04T01:49:29.365Z,16
2017-06-04T01:50:38.253Z,15.76
2017-06-04T01:51:47.147Z,15.74
2017-06-04T01:52:56.366Z,15.84
2017-06-04T01:54:05.256Z,15.68
2017-06-04T01:55:14.625Z,15.65
2017-06-04T01:56:23.519Z,15.64
2017-06-04T01:57:32.413Z,15.68
2017-06-04T01:58:41.306Z,15.76
2017-06-04T01:59:50.522Z,15.76
2017-06-04T02:00:59.460Z,15.74
2017-06-04T02:02:08.355Z,15.76
2017-06-04T02:03:17.251Z,15.83
2017-06-04T02:04:26.143Z,15.76
2017-06-04T02:05:35.356Z,15.82
2017-06-04T02:06:44.398Z,15.8
2017-06-04T02:07:53.614Z,15.78
2017-06-04T02:09:02.834Z,15.83
2017-06-04T02:10:12.049Z,15.76
2017-06-04T02:11:21.593Z,15.68
2017-06-04T02:12:30.960Z,15.83
2017-06-04T02:13:39.852Z,15.9
2017-06-04T02:14:49.070Z,15.72
2017-06-04T02:15:58.289Z,15.72
2017-06-04T02:17:07.178Z,15.67
2017-06-04T02:18:16.219Z,15.71
2017-06-04T02:19:25.114Z,15.69
2017-06-04T02:20:34.004Z,15.65
2017-06-04T02:21:42.899Z,15.65
2017-06-04T02:22:52.121Z,15.59
2017-06-04T02:24:01.165Z,15.51
2017-06-04T02:25:10.378Z,15.53
2017-06-04T02:26:19.357Z,15.53
2017-06-04T02:27:28.252Z,15.71
2017-06-04T02:28:37.142Z,15.51
2017-06-04T02:29:46.034Z,15.54
2017-06-04T02:30:54.929Z,15.35
2017-06-04T02:32:04.476Z,15.43
2017-06-04T02:33:14.024Z,15.5
2017-06-04T02:34:22.928Z,15.47
2017-06-04T02:35:32.123Z,15.41
2017-06-04T02:36:41.013Z,15.39
2017-06-04T02:37:50.236Z,15.43
2017-06-04T02:38:59.129Z,15.43
2017-06-04T02:40:08.348Z,15.38
2017-06-04T02:41:17.572Z,15.43
2017-06-04T02:42:26.466Z,15.36
2017-06-04T02:43:35.360Z,15.38
2017-06-04T02:44:44.252Z,15.32
2017-06-04T02:45:53.147Z,15.31
2017-06-04T02:47:02.339Z,15.34
2017-06-04T02:48:11.230Z,15.43
2017-06-04T02:49:20.122Z,15.34
2017-06-04T02:50:29.343Z,15.23
2017-06-04T02:51:38.567Z,15.23
2017-06-04T02:52:47.790Z,15.36
2017-06-04T02:53:56.681Z,15.23
2017-06-04T02:55:05.897Z,15.34
2017-06-04T02:56:14.789Z,15.25
2017-06-04T02:57:23.682Z,15.31
2017-06-04T02:58:32.632Z,15.2
2017-06-04T02:59:41.878Z,15.23
2017-06-04T03:00:51.097Z,15.17
2017-06-04T03:01:59.985Z,15.25
2017-06-04T03:03:08.876Z,15.27
2017-06-04T03:04:17.766Z,15.31
2017-06-04T03:05:26.659Z,15.19
2017-06-04T03:06:35.554Z,15.16
2017-06-04T03:07:44.446Z,15.27
2017-06-04T03:08:53.337Z,15.17
2017-06-04T03:10:02.384Z,15.21
2017-06-04T03:11:11.601Z,15.16
2017-06-04T03:12:20.820Z,15.28
2017-06-04T03:13:29.708Z,15.25
2017-06-04T03:14:38.627Z,15.25
2017-06-04T03:15:47.819Z,15.28
2017-06-04T03:16:56.747Z,15.19
2017-06-04T03:18:05.640Z,15.23
2017-06-04T03:19:14.537Z,15.28
2017-06-04T03:20:23.757Z,15.23
2017-06-04T03:21:33.023Z,15.16
2017-06-04T03:22:42.243Z,15.17
2017-06-04T03:23:51.134Z,15.11
2017-06-04T03:25:00.026Z,15.1
2017-06-04T03:26:08.923Z,15.21
2017-06-04T03:27:18.240Z,15.11
2017-06-04T03:28:27.130Z,15.14
2017-06-04T03:29:36.034Z,15.13
2017-06-04T03:30:45.261Z,15.19
2017-06-04T03:31:54.476Z,15.11
2017-06-04T03:33:03.421Z,15.25
2017-06-04T03:34:12.315Z,15.25
2017-06-04T03:35:21.206Z,15.09
2017-06-04T03:36:30.423Z,15.06
2017-06-04T03:37:39.638Z,15.09
2017-06-04T03:38:48.675Z,15.03
2017-06-04T03:39:57.569Z,15.07
2017-06-04T03:41:06.470Z,15.07
2017-06-04T03:42:15.363Z,15.14
2017-06-04T03:43:24.259Z,14.99
2017-06-04T03:44:33.205Z,15.02
2017-06-04T03:45:42.417Z,14.98
2017-06-04T03:46:51.634Z,14.99
2017-06-04T03:48:00.850Z,14.95
2017-06-04T03:49:09.742Z,15.02
2017-06-04T03:50:18.959Z,14.94
2017-06-04T03:51:28.229Z,14.94
2017-06-04T03:52:37.115Z,14.99
2017-06-04T03:53:46.006Z,14.91
2017-06-04T03:54:54.901Z,14.95
2017-06-04T03:56:04.544Z,14.98
2017-06-04T03:57:13.443Z,15.07
2017-06-04T03:58:22.336Z,15.01
2017-06-04T03:59:31.229Z,15.02
2017-06-04T04:00:40.119Z,15.1
2017-06-04T04:01:49.106Z,15.02
2017-06-04T04:02:57.996Z,14.98
2017-06-04T04:04:07.214Z,15.07
2017-06-04T04:05:16.434Z,15.14
2017-06-04T04:06:25.360Z,15.03
2017-06-04T04:07:34.359Z,15.1
2017-06-04T04:08:43.252Z,15.09
2017-06-04T04:09:52.142Z,15.11
2017-06-04T04:11:01.031Z,15.07
2017-06-04T04:12:09.922Z,14.94
2017-06-04T04:13:18.884Z,14.99
2017-06-04T04:14:28.096Z,15.13
2017-06-04T04:15:37.642Z,14.96
2017-06-04T04:16:46.861Z,15.09
2017-06-04T04:17:55.754Z,14.96
2017-06-04T04:19:04.792Z,15.14
2017-06-04T04:20:13.685Z,15.27
2017-06-04T04:21:22.904Z,15.11
2017-06-04T04:22:31.800Z,15.13
2017-06-04T04:23:41.340Z,14.96
2017-06-04T04:24:50.556Z,14.96
2017-06-04T04:25:59.449Z,14.99
2017-06-04T04:27:08.348Z,14.99
2017-06-04T04:28:17.238Z,15.13
2017-06-04T04:29:26.454Z,15.09
2017-06-04T04:30:35.395Z,15.14
2017-06-04T04:31:44.291Z,15.21
2017-06-04T04:32:53.507Z,15.14
2017-06-04T04:34:03.045Z,15.09
2017-06-04T04:35:11.935Z,15.06
2017-06-04T04:36:20.878Z,15.17
2017-06-04T04:37:30.098Z,15.07
2017-06-04T04:38:39.023Z,15.17
2017-06-04T04:39:47.916Z,15.11
2017-06-04T04:40:57.129Z,15.17
2017-06-04T04:42:06.596Z,15.19
2017-06-04T04:43:15.491Z,15.14
2017-06-04T04:44:24.380Z,15.25
2017-06-04T04:45:33.351Z,15.23
2017-06-04T04:46:42.243Z,15.28
2017-06-04T04:47:51.134Z,15.23
2017-06-04T04:49:00.027Z,15.11
2017-06-04T04:50:08.918Z,15.03
2017-06-04T04:51:17.804Z,15.14
2017-06-04T04:52:26.693Z,15.14
2017-06-04T04:53:35.634Z,15.02
2017-06-04T04:54:44.530Z,15.17
2017-06-04T04:55:53.422Z,15.1
2017-06-04T04:57:02.311Z,15.25
2017-06-04T04:58:11.526Z,15.16
2017-06-04T04:59:20.419Z,15.1
2017-06-04T05:00:29.635Z,15.06
2017-06-04T05:01:38.856Z,14.91
2017-06-04T05:02:47.751Z,14.94
2017-06-04T05:03:56.641Z,14.84
2017-06-04T05:05:05.635Z,14.94
2017-06-04T05:06:14.857Z,14.8
2017-06-04T05:07:24.075Z,14.75
2017-06-04T05:08:32.967Z,14.81
2017-06-04T05:09:41.855Z,14.81
2017-06-04T05:10:50.746Z,14.77
2017-06-04T05:12:00.289Z,14.88
2017-06-04T05:13:09.186Z,14.89
2017-06-04T05:14:18.431Z,14.96
2017-06-04T05:15:27.325Z,15.09
2017-06-04T05:16:36.690Z,14.89
2017-06-04T05:17:45.580Z,14.99
2017-06-04T05:18:54.795Z,15.01
2017-06-04T05:20:03.688Z,14.8
2017-06-04T05:21:12.604Z,14.75
2017-06-04T05:22:21.544Z,14.81
2017-06-04T05:23:30.440Z,14.72
2017-06-04T05:24:39.337Z,14.72
2017-06-04T05:25:48.252Z,14.86
2017-06-04T05:26:57.143Z,14.73
2017-06-04T05:28:06.044Z,14.84
2017-06-04T05:29:14.935Z,14.84
2017-06-04T05:30:23.827Z,14.7
2017-06-04T05:31:32.717Z,14.73
2017-06-04T05:32:41.608Z,14.65
2017-06-04T05:33:50.706Z,14.64
2017-06-04T05:34:59.594Z,14.73
2017-06-04T05:36:08.485Z,14.78
2017-06-04T05:37:17.696Z,14.64
2017-06-04T05:38:26.595Z,14.61
2017-06-04T05:39:35.790Z,14.68
2017-06-04T05:40:45.004Z,14.75
2017-06-04T05:41:53.896Z,14.61
2017-06-04T05:43:02.787Z,14.8
2017-06-04T05:44:11.676Z,14.83
2017-06-04T05:45:20.721Z,14.77
2017-06-04T05:46:29.946Z,14.75
2017-06-04T05:47:38.836Z,14.68
2017-06-04T05:48:47.726Z,14.77
2017-06-04T05:49:56.615Z,14.8
2017-06-04T05:51:05.605Z,14.75
2017-06-04T05:52:14.820Z,14.64
2017-06-04T05:53:24.085Z,14.73
2017-06-04T05:54:32.973Z,14.7
2017-06-04T05:55:42.220Z,14.75
2017-06-04T05:56:51.260Z,14.78
2017-06-04T05:58:00.151Z,14.72
2017-06-04T05:59:09.044Z,14.7
2017-06-04T06:00:17.935Z,14.68
2017-06-04T06:01:26.827Z,14.78
2017-06-04T06:02:36.194Z,14.77
2017-06-04T06:03:45.086Z,14.89
2017-06-04T06:04:53.979Z,14.96
2017-06-04T06:06:02.873Z,14.91
2017-06-04T06:07:11.764Z,14.8
2017-06-04T06:08:20.686Z,15.06
2017-06-04T06:09:29.580Z,14.86
2017-06-04T06:10:38.800Z,15.07
2017-06-04T06:11:47.694Z,14.99
2017-06-04T06:12:56.584Z,14.92
2017-06-04T06:14:05.795Z,14.78
2017-06-04T06:15:15.013Z,14.92
2017-06-04T06:16:24.228Z,15.02
2017-06-04T06:17:33.168Z,14.96
2017-06-04T06:18:42.058Z,14.83
2017-06-04T06:19:51.573Z,14.8
2017-06-04T06:21:00.468Z,14.8
2017-06-04T06:22:10.007Z,14.96
2017-06-04T06:23:19.221Z,14.86
2017-06-04T06:24:28.113Z,14.86
2017-06-04T06:25:37.107Z,14.83
2017-06-04T06:26:46.001Z,14.92
2017-06-04T06:27:54.894Z,14.8
2017-06-04T06:29:04.109Z,15.01
2017-06-04T06:30:13.002Z,14.95
2017-06-04T06:31:21.946Z,14.84
2017-06-04T06:32:31.167Z,14.98
2017-06-04T06:33:40.059Z,14.98
2017-06-04T06:34:48.953Z,14.96
2017-06-04T06:35:57.848Z,15.03
2017-06-04T06:37:07.064Z,14.88
2017-06-04T06:38:16.280Z,14.95
2017-06-04T06:39:25.498Z,14.91
2017-06-04T06:40:34.710Z,14.88
2017-06-04T06:41:43.601Z,14.96
2017-06-04T06:42:52.797Z,14.96
2017-06-04T06:44:02.010Z,14.89
2017-06-04T06:45:11.550Z,14.88
2017-06-04T06:46:20.443Z,14.86
2017-06-04T06:47:29.660Z,14.83
2017-06-04T06:48:38.898Z,14.8
2017-06-04T06:49:48.444Z,14.98
2017-06-04T06:50:57.340Z,14.98
2017-06-04T06:52:06.232Z,15.06
2017-06-04T06:53:15.125Z,14.92
2017-06-04T06:54:24.319Z,14.88
2017-06-04T06:55:33.216Z,14.89
2017-06-04T06:56:42.112Z,14.94
2017-06-04T06:57:51.327Z,15.09
2017-06-04T06:59:00.216Z,15.2
2017-06-04T07:00:09.764Z,15.28
2017-06-04T07:01:18.655Z,15.03
2017-06-04T07:02:27.867Z,15.07
2017-06-04T07:03:36.755Z,14.99
2017-06-04T07:04:45.649Z,14.99
2017-06-04T07:05:54.844Z,15.09
2017-06-04T07:07:04.066Z,15.17
2017-06-04T07:08:12.960Z,15.29
2017-06-04T07:09:22.182Z,15.17
2017-06-04T07:10:31.071Z,15.13
2017-06-04T07:11:40.772Z,15.14
2017-06-04T07:12:49.991Z,15.34
2017-06-04T07:13:59.564Z,15.32
2017-06-04T07:15:08.458Z,15.25
2017-06-04T07:16:17.353Z,15.17
2017-06-04T07:17:26.346Z,15.11
2017-06-04T07:18:35.560Z,15.13
2017-06-04T07:19:44.781Z,15.19
2017-06-04T07:20:53.995Z,15.11
2017-06-04T07:22:02.884Z,15.25
2017-06-04T07:23:11.931Z,15.14
2017-06-04T07:24:21.150Z,15.19
2017-06-04T07:25:30.044Z,15.25
2017-06-04T07:26:38.943Z,15.23
2017-06-04T07:27:47.841Z,15.25
2017-06-04T07:28:57.160Z,15.28
2017-06-04T07:30:06.382Z,15.25
2017-06-04T07:31:15.278Z,15.41
2017-06-04T07:32:24.174Z,15.53
2017-06-04T07:33:33.066Z,15.6
2017-06-04T07:34:42.007Z,15.43
2017-06-04T07:35:50.902Z,15.38
2017-06-04T07:36:59.798Z,15.5
2017-06-04T07:38:09.021Z,15.56
2017-06-04T07:39:18.237Z,15.53
2017-06-04T07:40:27.554Z,15.62
2017-06-04T07:41:36.479Z,15.59
2017-06-04T07:42:45.376Z,15.54
2017-06-04T07:43:54.624Z,15.54
2017-06-04T07:45:03.845Z,15.59
2017-06-04T07:46:12.735Z,15.57
2017-06-04T07:47:21.957Z,15.54
2017-06-04T07:48:30.849Z,15.56
2017-06-04T07:49:40.091Z,15.54
2017-06-04T07:50:48.982Z,15.64
2017-06-04T07:51:58.206Z,15.6
2017-06-04T07:53:07.099Z,15.65
2017-06-04T07:54:15.990Z,15.68
2017-06-04T07:55:24.884Z,15.6
2017-06-04T07:56:34.099Z,15.68
2017-06-04T07:57:43.798Z,15.72
2017-06-04T07:58:52.695Z,15.59
2017-06-04T08:00:01.588Z,15.68
2017-06-04T08:01:10.482Z,15.69
2017-06-04T08:02:19.703Z,15.68
2017-06-04T08:03:28.606Z,15.74
2017-06-04T08:04:37.527Z,15.75
2017-06-04T08:05:46.423Z,15.89
2017-06-04T08:06:55.647Z,15.94
2017-06-04T08:08:04.543Z,15.89
2017-06-04T08:09:13.485Z,15.83
2017-06-04T08:10:22.380Z,15.9
2017-06-04T08:11:31.600Z,15.84
2017-06-04T08:12:40.492Z,16.01
2017-06-04T08:13:49.383Z,15.89
2017-06-04T08:14:58.425Z,15.97
2017-06-04T08:16:07.317Z,16.01
2017-06-04T08:17:16.209Z,15.93
2017-06-04T08:18:25.424Z,15.93
2017-06-04T08:19:34.320Z,15.96
2017-06-04T08:20:43.641Z,15.93
2017-06-04T08:21:52.537Z,15.96
2017-06-04T08:23:01.753Z,16.12
2017-06-04T08:24:10.969Z,16
2017-06-04T08:25:19.866Z,16.01
2017-06-04T08:26:29.240Z,16.07
2017-06-04T08:27:38.139Z,16.14
2017-06-04T08:28:47.362Z,16.08
2017-06-04T08:29:56.579Z,16.11
2017-06-04T08:31:05.474Z,16.25
2017-06-04T08:32:15.346Z,16.31
2017-06-04T08:33:24.567Z,16.41
2017-06-04T08:34:33.785Z,16.45
2017-06-04T08:35:43.672Z,16.45
2017-06-04T08:36:52.608Z,16.45
2017-06-04T08:38:01.878Z,16.49
2017-06-04T08:39:10.773Z,16.61
2017-06-04T08:40:19.673Z,16.52
2017-06-04T08:41:28.569Z,16.66
2017-06-04T08:42:37.462Z,16.6
2017-06-04T08:43:46.990Z,16.66
2017-06-04T08:44:55.881Z,16.75
2017-06-04T08:46:04.781Z,16.7
2017-06-04T08:47:13.999Z,16.78
2017-06-04T08:48:22.901Z,16.75
2017-06-04T08:49:32.271Z,16.88
2017-06-04T08:50:41.165Z,16.94
2017-06-04T08:51:50.387Z,16.88
2017-06-04T08:52:59.283Z,16.88
2017-06-04T08:54:08.506Z,16.88
2017-06-04T08:55:17.502Z,16.88
2017-06-04T08:56:26.407Z,17.04
2017-06-04T08:57:35.965Z,17.04
2017-06-04T08:58:45.186Z,17.14
2017-06-04T08:59:54.091Z,17.18
2017-06-04T09:01:03.286Z,17.12
2017-06-04T09:02:12.507Z,17.15
2017-06-04T09:03:21.406Z,17.15
2017-06-04T09:04:30.300Z,17.07
2017-06-04T09:05:39.520Z,17.16
2017-06-04T09:06:48.898Z,17.26
2017-06-04T09:07:58.114Z,17.22
2017-06-04T09:09:07.008Z,17.21
2017-06-04T09:10:15.901Z,17.19
2017-06-04T09:11:24.794Z,17.16
2017-06-04T09:12:34.341Z,17.23
2017-06-04T09:13:43.231Z,17.25
2017-06-04T09:14:52.126Z,17.28
2017-06-04T09:16:01.017Z,17.26
2017-06-04T09:17:10.261Z,17.28
2017-06-04T09:18:19.534Z,17.16
2017-06-04T09:19:28.438Z,17.15
2017-06-04T09:20:37.333Z,17.22
2017-06-04T09:21:46.232Z,17.26
2017-06-04T09:22:55.446Z,17.4
2017-06-04T09:24:04.347Z,17.58
2017-06-04T09:25:13.253Z,17.58
2017-06-04T09:26:22.149Z,17.54
2017-06-04T09:27:31.044Z,17.51
2017-06-04T09:28:40.266Z,17.49
2017-06-04T09:29:49.312Z,17.48
2017-06-04T09:30:58.854Z,17.59
2017-06-04T09:32:07.752Z,17.58
2017-06-04T09:33:16.647Z,17.58
2017-06-04T09:34:25.541Z,17.49
2017-06-04T09:35:34.485Z,17.54
2017-06-04T09:36:43.383Z,17.56
2017-06-04T09:37:52.611Z,17.63
2017-06-04T09:39:01.505Z,17.56
2017-06-04T09:40:10.398Z,17.56
2017-06-04T09:41:19.389Z,17.62
2017-06-04T09:42:28.605Z,17.7
2017-06-04T09:43:37.499Z,17.66
2017-06-04T09:44:46.395Z,17.77
2017-06-04T09:45:55.292Z,17.9
2017-06-04T09:47:04.556Z,17.92
2017-06-04T09:48:13.774Z,17.84
2017-06-04T09:49:22.994Z,17.9
2017-06-04T09:50:32.220Z,17.87
2017-06-04T09:51:41.114Z,17.93
2017-06-04T09:52:50.110Z,18
2017-06-04T09:53:59.000Z,18.1
2017-06-04T09:55:07.894Z,18.18
2017-06-04T09:56:16.790Z,18.23
2017-06-04T09:57:25.686Z,18.2
2017-06-04T09:58:34.679Z,18.21
2017-06-04T09:59:43.571Z,18.3
2017-06-04T10:00:52.791Z,18.42
2017-06-04T10:02:01.683Z,18.48
2017-06-04T10:03:10.905Z,18.37
2017-06-04T10:04:19.949Z,18.42
2017-06-04T10:05:28.840Z,18.47
2017-06-04T10:06:37.735Z,18.5
2017-06-04T10:07:46.655Z,18.57
2017-06-04T10:08:55.550Z,18.75
2017-06-04T10:10:05.169Z,18.65
2017-06-04T10:11:14.068Z,18.67
2017-06-04T10:12:23.289Z,18.65
2017-06-04T10:13:32.507Z,18.65
2017-06-04T10:14:41.405Z,18.65
2017-06-04T10:15:50.446Z,18.69
2017-06-04T10:16:59.664Z,18.62
2017-06-04T10:18:08.561Z,18.75
2017-06-04T10:19:17.460Z,18.76
2017-06-04T10:20:26.351Z,18.85
2017-06-04T10:21:35.294Z,18.94
2017-06-04T10:22:44.193Z,18.95
2017-06-04T10:23:53.095Z,19.08
2017-06-04T10:25:01.991Z,19.21
2017-06-04T10:26:10.882Z,19.18
2017-06-04T10:27:19.827Z,19.29
2017-06-04T10:28:28.723Z,19.19
2017-06-04T10:29:37.943Z,19.21
2017-06-04T10:30:47.496Z,19.14
2017-06-04T10:31:56.389Z,19.06
2017-06-04T10:33:05.290Z,19.06
2017-06-04T10:34:14.187Z,18.99
2017-06-04T10:35:23.083Z,18.95
2017-06-04T10:36:31.987Z,18.95
2017-06-04T10:37:40.886Z,19
2017-06-04T10:38:50.432Z,19
2017-06-04T10:39:59.322Z,18.92
2017-06-04T10:41:08.558Z,18.94
2017-06-04T10:42:17.457Z,18.98
2017-06-04T10:43:26.674Z,19.02
2017-06-04T10:44:35.718Z,19.21
2017-06-04T10:45:44.937Z,19.26
2017-06-04T10:46:54.188Z,19.31
2017-06-04T10:48:03.085Z,19.41
2017-06-04T10:49:11.978Z,19.36
2017-06-04T10:50:21.171Z,19.32
2017-06-04T10:51:30.068Z,19.41
2017-06-04T10:52:38.969Z,19.55
2017-06-04T10:53:48.187Z,19.46
2017-06-04T10:54:57.406Z,19.4
2017-06-04T10:56:06.303Z,19.44
2017-06-04T10:57:15.526Z,19.47
2017-06-04T10:58:24.750Z,19.63
2017-06-04T10:59:33.653Z,19.55
2017-06-04T11:00:42.550Z,19.54
2017-06-04T11:01:51.885Z,19.73
2017-06-04T11:03:00.781Z,19.73
2017-06-04T11:04:09.674Z,19.66
2017-06-04T11:05:18.570Z,19.87
2017-06-04T11:06:27.471Z,19.77
2017-06-04T11:07:36.372Z,19.8
2017-06-04T11:08:45.268Z,19.77
2017-06-04T11:09:54.172Z,19.91
2017-06-04T11:11:03.065Z,19.96
2017-06-04T11:12:11.965Z,19.94
2017-06-04T11:13:21.164Z,19.94
2017-06-04T11:14:30.707Z,20.02
2017-06-04T11:15:39.603Z,20.13
2017-06-04T11:16:48.506Z,20.05
2017-06-04T11:17:57.402Z,20.21
2017-06-04T11:19:06.498Z,20.18
2017-06-04T11:20:15.394Z,20.18
2017-06-04T11:21:24.615Z,20.05
2017-06-04T11:22:33.841Z,20.16
2017-06-04T11:23:42.740Z,20.18
2017-06-04T11:24:51.790Z,20.38
2017-06-04T11:26:00.685Z,20.36
2017-06-04T11:27:09.904Z,20.39
2017-06-04T11:28:19.135Z,20.33
2017-06-04T11:29:28.367Z,20.21
2017-06-04T11:30:37.685Z,20.33
2017-06-04T11:31:46.580Z,20.38
2017-06-04T11:32:55.804Z,20.48
2017-06-04T11:34:05.026Z,20.5
2017-06-04T11:35:13.928Z,20.58
2017-06-04T11:36:22.827Z,20.51
2017-06-04T11:37:32.049Z,20.5
2017-06-04T11:38:41.273Z,20.36
2017-06-04T11:39:50.176Z,20.43
2017-06-04T11:40:59.393Z,20.36
2017-06-04T11:42:08.289Z,20.28
2017-06-04T11:43:17.185Z,20.32
2017-06-04T11:44:26.084Z,20.31
2017-06-04T11:45:34.986Z,20.35
2017-06-04T11:46:44.206Z,20.54
2017-06-04T11:47:53.356Z,20.72
2017-06-04T11:49:02.256Z,20.87
2017-06-04T11:50:11.472Z,20.91
2017-06-04T11:51:20.376Z,21.06
2017-06-04T11:52:29.272Z,21.24
2017-06-04T11:53:38.224Z,21.27
2017-06-04T11:54:47.119Z,20.98
2017-06-04T11:55:56.021Z,20.94
2017-06-04T11:57:05.250Z,20.79
2017-06-04T11:58:14.175Z,20.84
2017-06-04T11:59:23.468Z,20.72
2017-06-04T12:00:32.367Z,20.84
2017-06-04T12:01:41.590Z,20.97
2017-06-04T12:02:51.138Z,21.07
2017-06-04T12:04:00.066Z,21.13
2017-06-04T12:05:09.871Z,21.4
2017-06-04T12:06:18.769Z,21.43
2017-06-04T12:07:27.668Z,21.77
2017-06-04T12:08:36.897Z,21.86
2017-06-04T12:09:45.798Z,21.91
2017-06-04T12:10:54.899Z,21.84
2017-06-04T12:12:04.129Z,21.75
2017-06-04T12:13:13.030Z,21.74
2017-06-04T12:14:21.931Z,21.5
2017-06-04T12:15:30.875Z,21.5
2017-06-04T12:16:40.201Z,21.52
2017-06-04T12:17:49.424Z,21.64
2017-06-04T12:18:58.649Z,21.82
2017-06-04T12:20:07.551Z,21.8
2017-06-04T12:21:17.099Z,21.96
2017-06-04T12:22:26.152Z,22.22
2017-06-04T12:23:35.708Z,22.31
2017-06-04T12:24:44.610Z,22.31
2017-06-04T12:25:53.514Z,22.33
2017-06-04T12:27:02.749Z,22.18
2017-06-04T12:28:11.698Z,22.15
2017-06-04T12:29:20.602Z,21.94
2017-06-04T12:30:29.505Z,21.82
2017-06-04T12:31:38.408Z,21.74
2017-06-04T12:32:47.309Z,21.65
2017-06-04T12:33:56.260Z,21.59
2017-06-04T12:35:05.163Z,21.43
2017-06-04T12:36:14.395Z,21.47
2017-06-04T12:37:23.622Z,21.47
2017-06-04T12:38:32.526Z,21.42
2017-06-04T12:39:41.526Z,21.31
2017-06-04T12:40:50.759Z,21.28
2017-06-04T12:41:59.988Z,20.97
2017-06-04T12:43:08.905Z,21.04
2017-06-04T12:44:18.133Z,20.95
2017-06-04T12:45:27.080Z,20.99
2017-06-04T12:46:35.979Z,20.89
2017-06-04T12:47:45.531Z,20.87
2017-06-04T12:48:54.753Z,20.89
2017-06-04T12:50:03.979Z,20.8
2017-06-04T12:51:13.053Z,20.82
2017-06-04T12:52:21.958Z,20.74
2017-06-04T12:53:30.855Z,20.72
2017-06-04T12:54:40.078Z,20.55
2017-06-04T12:55:49.332Z,20.51
2017-06-04T12:56:58.285Z,20.5
2017-06-04T12:58:07.835Z,20.5
2017-06-04T12:59:17.089Z,20.35
2017-06-04T13:00:25.987Z,20.47
2017-06-04T13:01:35.209Z,20.48
2017-06-04T13:02:44.303Z,20.58
2017-06-04T13:03:53.526Z,20.62
2017-06-04T13:05:02.425Z,20.66
2017-06-04T13:06:11.332Z,20.69
2017-06-04T13:07:20.563Z,20.69
2017-06-04T13:08:29.614Z,20.87
2017-06-04T13:09:38.515Z,20.89
2017-06-04T13:10:47.420Z,21.19
2017-06-04T13:11:56.320Z,21.61
2017-06-04T13:13:05.220Z,21.62
2017-06-04T13:14:14.114Z,21.79
2017-06-04T13:15:23.345Z,21.75
2017-06-04T13:16:32.565Z,21.64
2017-06-04T13:17:41.465Z,21.54
2017-06-04T13:18:50.691Z,21.46
2017-06-04T13:19:59.748Z,21.4
2017-06-04T13:21:08.649Z,21.17
2017-06-04T13:22:17.548Z,21.12
2017-06-04T13:23:26.450Z,21.13
2017-06-04T13:24:35.352Z,21.09
2017-06-04T13:25:44.876Z,21.1
2017-06-04T13:26:54.102Z,21.16
2017-06-04T13:28:03.330Z,20.98
2017-06-04T13:29:12.228Z,20.99
2017-06-04T13:30:21.126Z,21.03
2017-06-04T13:31:30.173Z,21.06
2017-06-04T13:32:39.397Z,21.12
2017-06-04T13:33:48.617Z,21.12
2017-06-04T13:34:57.514Z,21.16
2017-06-04T13:36:06.415Z,21.12
2017-06-04T13:37:15.796Z,21.21
2017-06-04T13:38:24.693Z,21.19
2017-06-04T13:39:33.596Z,21.31
2017-06-04T13:40:42.491Z,21.37
2017-06-04T13:41:51.717Z,21.24
2017-06-04T13:43:00.765Z,21.37
2017-06-04T13:44:09.688Z,21.35
2017-06-04T13:45:18.589Z,21.25
2017-06-04T13:46:27.487Z,21.32
2017-06-04T13:47:36.710Z,21.24
2017-06-04T13:48:45.611Z,21.07
2017-06-04T13:49:54.832Z,21.03
2017-06-04T13:51:04.384Z,20.95
2017-06-04T13:52:13.283Z,20.95
2017-06-04T13:53:22.512Z,20.88
2017-06-04T13:54:31.735Z,20.91
2017-06-04T13:55:40.633Z,20.88
2017-06-04T13:56:49.531Z,20.92
2017-06-04T13:57:58.750Z,20.92
2017-06-04T13:59:07.645Z,20.79
2017-06-04T14:00:16.595Z,20.73
2017-06-04T14:01:25.494Z,20.69
2017-06-04T14:02:34.387Z,20.58
2017-06-04T14:03:43.609Z,20.47
2017-06-04T14:04:52.505Z,20.5
2017-06-04T14:06:01.400Z,20.5
2017-06-04T14:07:10.622Z,20.52
2017-06-04T14:08:19.840Z,20.54
2017-06-04T14:09:28.738Z,20.47
2017-06-04T14:10:37.638Z,20.47
2017-06-04T14:11:46.910Z,20.54
2017-06-04T14:12:55.801Z,20.51
2017-06-04T14:14:04.725Z,20.52
2017-06-04T14:15:13.947Z,20.59
2017-06-04T14:16:22.843Z,20.67
2017-06-04T14:17:31.788Z,20.67
2017-06-04T14:18:41.007Z,20.8
2017-06-04T14:19:49.902Z,20.95
2017-06-04T14:20:58.797Z,21.12
2017-06-04T14:22:07.697Z,21.16
2017-06-04T14:23:17.070Z,21.27
2017-06-04T14:24:25.966Z,21.49
2017-06-04T14:25:34.867Z,21.61
2017-06-04T14:26:43.766Z,21.8
2017-06-04T14:27:52.992Z,22.03
2017-06-04T14:29:02.098Z,22.21
2017-06-04T14:30:10.998Z,22.28
2017-06-04T14:31:19.905Z,22.61
2017-06-04T14:32:29.137Z,22.75
2017-06-04T14:33:38.050Z,22.67
2017-06-04T14:34:47.104Z,22.72
2017-06-04T14:35:56.006Z,22.85
2017-06-04T14:37:05.236Z,23.27
2017-06-04T14:38:14.142Z,23.51
2017-06-04T14:39:23.373Z,23.75
2017-06-04T14:40:32.429Z,23.88
2017-06-04T14:41:41.339Z,23.83
2017-06-04T14:42:50.246Z,23.8
2017-06-04T14:43:59.152Z,23.73
2017-06-04T14:45:08.059Z,23.68
2017-06-04T14:46:17.390Z,23.58
2017-06-04T14:47:26.297Z,23.54
2017-06-04T14:48:35.200Z,23.32
2017-06-04T14:49:44.105Z,23.09
2017-06-04T14:50:53.365Z,23.02
2017-06-04T14:52:02.371Z,23.02